Schedule Details

Flight Number: ASXVIP9X
Departure: Katowice Pyrzowice (EPKT) at 12:00
Arrival: Gdansk im. Lecha Walesy (EPGD) at 13:30
Route: ARRAY

Weather Information
EPKT 180630Z VRB01KT 4300 BR FEW008 SCT032 OVC037 M01/M02 Q1024 REFZRA
EPGD 180630Z 29002KT 8000 SCT041 M03/M04 Q1026

Schedule Frequency

Route Map